createdAt,value
2018-12-13T00:01:20.648Z,3.43
2018-12-13T00:06:26.359Z,3.97
2018-12-13T00:11:30.002Z,3.87
2018-12-13T00:16:33.460Z,3.70
2018-12-13T00:21:36.922Z,4.30
2018-12-13T00:26:40.565Z,4.30
2018-12-13T00:31:44.009Z,4.87
2018-12-13T00:36:47.416Z,4.00
2018-12-13T00:41:51.055Z,4.33
2018-12-13T00:46:54.681Z,4.67
2018-12-13T00:51:58.305Z,4.80
2018-12-13T00:57:02.079Z,3.93
2018-12-13T01:02:05.676Z,4.10
2018-12-13T01:07:09.242Z,4.07
2018-12-13T01:12:12.728Z,4.10
2018-12-13T01:17:16.249Z,4.10
2018-12-13T01:22:19.808Z,3.87
2018-12-13T01:27:23.270Z,4.13
2018-12-13T01:32:27.010Z,4.50
2018-12-13T01:37:30.545Z,4.33
2018-12-13T01:42:34.030Z,4.70
2018-12-13T01:47:37.966Z,4.77
2018-12-13T01:52:41.395Z,5.00
2018-12-13T01:57:45.012Z,4.90
2018-12-13T02:02:48.833Z,5.50
2018-12-13T02:07:52.281Z,5.17
2018-12-13T02:12:56.009Z,6.20
2018-12-13T02:17:59.713Z,6.03
2018-12-13T02:23:03.238Z,5.57
2018-12-13T02:28:07.101Z,5.70
2018-12-13T02:33:10.650Z,5.20
2018-12-13T02:38:14.099Z,5.37
2018-12-13T02:43:17.638Z,5.07
2018-12-13T02:48:21.130Z,5.20
2018-12-13T02:53:24.650Z,5.07
2018-12-13T02:58:28.311Z,5.47
2018-12-13T03:03:31.937Z,5.90
2018-12-13T03:08:35.474Z,5.63
2018-12-13T03:13:39.065Z,5.20
2018-12-13T03:18:42.917Z,5.50
2018-12-13T03:23:46.364Z,5.30
2018-12-13T03:28:49.938Z,5.53
2018-12-13T03:33:53.623Z,5.83
2018-12-13T03:38:57.601Z,5.87
2018-12-13T03:44:01.365Z,5.70
2018-12-13T03:49:05.146Z,5.17
2018-12-13T03:54:08.648Z,5.73
2018-12-13T03:59:12.328Z,5.20
2018-12-13T04:04:15.896Z,4.87
2018-12-13T04:09:19.308Z,5.07
2018-12-13T04:14:23.249Z,5.10
2018-12-13T04:19:26.746Z,5.83
2018-12-13T04:24:30.527Z,5.10
2018-12-13T04:29:33.945Z,4.83
2018-12-13T04:34:37.315Z,5.57
2018-12-13T04:39:41.085Z,4.97
2018-12-13T04:44:44.638Z,5.27
2018-12-13T04:49:48.255Z,5.43
2018-12-13T04:54:51.741Z,4.77
2018-12-13T04:59:55.273Z,5.10
2018-12-13T05:04:58.824Z,4.70
2018-12-13T05:10:02.650Z,5.50
2018-12-13T05:15:06.217Z,5.23
2018-12-13T05:20:09.619Z,5.70
2018-12-13T05:25:13.174Z,5.40
2018-12-13T05:30:16.794Z,5.10
2018-12-13T05:35:20.335Z,5.13
2018-12-13T05:40:24.054Z,5.50
2018-12-13T05:45:27.554Z,5.20
2018-12-13T05:50:30.982Z,5.20
2018-12-13T05:55:34.649Z,4.67
2018-12-13T06:00:38.388Z,5.07
2018-12-13T06:05:41.979Z,5.37
2018-12-13T06:10:45.459Z,5.23
2018-12-13T06:15:49.112Z,6.43
2018-12-13T06:20:52.601Z,5.57
2018-12-13T06:25:55.971Z,6.50
2018-12-13T06:30:59.435Z,6.17
2018-12-13T06:36:03.410Z,6.17
2018-12-13T06:41:07.151Z,6.93
2018-12-13T06:46:10.841Z,6.43
2018-12-13T06:51:14.478Z,6.87
2018-12-13T06:56:17.972Z,6.67
2018-12-13T07:01:21.573Z,6.83
2018-12-13T07:06:25.326Z,7.07
2018-12-13T07:11:28.791Z,6.90
2018-12-13T07:16:32.415Z,6.57
2018-12-13T07:21:35.875Z,7.50
2018-12-13T07:26:39.479Z,8.83
2018-12-13T07:31:43.257Z,8.13
2018-12-13T07:36:46.727Z,7.90
2018-12-13T07:41:50.322Z,8.07
2018-12-13T07:46:54.941Z,8.50
2018-12-13T07:51:58.557Z,8.60
2018-12-13T07:57:02.355Z,8.03
2018-12-13T08:02:06.076Z,7.80
2018-12-13T08:07:09.853Z,8.57
2018-12-13T08:12:13.541Z,8.03
2018-12-13T08:17:17.157Z,7.90
2018-12-13T08:22:22.799Z,8.27
2018-12-13T08:27:27.546Z,7.80
2018-12-13T08:32:31.165Z,8.23
2018-12-13T08:37:34.783Z,8.13
2018-12-13T08:42:38.216Z,8.50
2018-12-13T08:47:41.758Z,7.70
2018-12-13T08:52:45.464Z,8.13
2018-12-13T08:57:49.182Z,7.87
2018-12-13T09:02:52.757Z,8.13
2018-12-13T09:07:56.313Z,7.10
2018-12-13T09:13:01.619Z,7.60
2018-12-13T09:18:07.720Z,7.30
2018-12-13T09:23:12.618Z,6.87
2018-12-13T09:28:16.418Z,6.97
2018-12-13T09:33:20.139Z,7.60
2018-12-13T09:38:23.666Z,7.40
2018-12-13T09:43:27.366Z,6.63
2018-12-13T09:48:30.984Z,6.50
2018-12-13T09:53:35.625Z,6.60
2018-12-13T09:58:39.157Z,7.03
2018-12-13T10:03:42.703Z,7.07
2018-12-13T10:08:46.506Z,6.83
2018-12-13T10:13:50.133Z,7.40
2018-12-13T10:18:53.642Z,6.37
2018-12-13T10:23:57.234Z,6.80
2018-12-13T10:29:00.748Z,6.63
2018-12-13T10:34:04.576Z,5.97
2018-12-13T10:39:08.834Z,6.63
2018-12-13T10:44:13.839Z,5.97
2018-12-13T10:49:17.310Z,5.60
2018-12-13T10:54:20.902Z,5.70
2018-12-13T10:59:24.651Z,6.33
2018-12-13T11:04:31.221Z,5.97
2018-12-13T11:09:34.929Z,6.30
2018-12-13T11:14:38.475Z,6.17
2018-12-13T11:19:41.968Z,5.57
2018-12-13T11:24:45.440Z,5.40
2018-12-13T11:35:22.573Z,5.73
2018-12-13T11:40:27.580Z,5.83
2018-12-13T11:45:31.267Z,5.63
2018-12-13T11:50:34.983Z,6.30
2018-12-13T11:55:40.390Z,5.80
2018-12-13T12:00:44.158Z,5.87
2018-12-13T12:05:47.720Z,5.87
2018-12-13T12:10:52.378Z,5.70
2018-12-13T12:15:55.921Z,6.00
2018-12-13T12:20:59.536Z,6.30
2018-12-13T12:26:03.659Z,5.13
2018-12-13T12:31:07.333Z,5.50
2018-12-13T12:36:10.861Z,5.10
2018-12-13T12:41:14.431Z,5.47
2018-12-13T12:46:17.940Z,5.00
2018-12-13T12:51:21.793Z,5.30
2018-12-13T12:56:25.553Z,5.13
2018-12-13T13:01:29.113Z,5.03
2018-12-13T13:06:32.716Z,5.07
2018-12-13T13:11:36.258Z,5.10
2018-12-13T13:16:39.860Z,5.20
2018-12-13T13:21:43.398Z,4.77
2018-12-13T13:26:47.178Z,5.30
2018-12-13T13:31:54.021Z,5.40
2018-12-13T13:36:57.607Z,5.60
2018-12-13T13:42:03.836Z,5.27
2018-12-13T13:47:07.566Z,5.40
2018-12-13T13:52:11.326Z,5.10
2018-12-13T13:57:15.085Z,6.90
2018-12-13T14:02:18.863Z,5.83
2018-12-13T14:07:23.679Z,5.80
2018-12-13T14:12:27.222Z,5.87
2018-12-13T14:17:31.479Z,6.10
2018-12-13T14:22:35.521Z,6.90
2018-12-13T14:27:39.231Z,6.50
2018-12-13T14:32:42.837Z,6.97
2018-12-13T14:37:46.707Z,7.53
2018-12-13T14:42:50.217Z,7.17
2018-12-13T14:47:53.848Z,7.03
2018-12-13T14:52:57.544Z,7.63
2018-12-13T14:58:01.252Z,7.93
2018-12-13T15:03:05.232Z,6.73
2018-12-13T15:08:09.105Z,7.03
2018-12-13T15:13:12.658Z,7.03
2018-12-13T15:18:20.965Z,6.80
2018-12-13T15:23:24.500Z,7.33
2018-12-13T15:33:41.547Z,7.67
2018-12-13T15:38:45.401Z,7.73
2018-12-13T15:43:48.973Z,8.37
2018-12-13T15:48:52.468Z,7.23
2018-12-13T15:53:55.992Z,8.13
2018-12-13T15:58:59.686Z,8.07
2018-12-13T16:04:03.343Z,9.07
2018-12-13T16:09:08.204Z,9.20
2018-12-13T16:14:12.129Z,9.43
2018-12-13T16:19:15.679Z,10.10
2018-12-13T16:24:20.461Z,10.37
2018-12-13T16:29:25.171Z,10.63
2018-12-13T16:34:28.660Z,10.77
2018-12-13T16:39:32.379Z,11.00
2018-12-13T16:44:35.849Z,10.93
2018-12-13T16:49:39.615Z,10.73
2018-12-13T16:54:43.154Z,11.40
2018-12-13T16:59:46.817Z,11.57
2018-12-13T17:04:50.336Z,11.97
2018-12-13T17:09:53.825Z,12.07
2018-12-13T17:14:57.267Z,12.90
2018-12-13T17:20:00.779Z,10.90
2018-12-13T17:25:05.190Z,10.70
2018-12-13T17:30:09.644Z,10.40
2018-12-13T17:35:13.186Z,10.43
2018-12-13T17:40:22.856Z,10.17
2018-12-13T17:45:22.500Z,10.30
2018-12-13T17:50:26.291Z,11.33
2018-12-13T17:55:29.875Z,10.30
2018-12-13T18:00:33.378Z,9.83
2018-12-13T18:05:36.867Z,9.50
2018-12-13T18:10:40.651Z,9.73
2018-12-13T18:15:44.079Z,9.90
2018-12-13T18:20:48.748Z,8.70
2018-12-13T18:25:54.062Z,10.07
2018-12-13T18:30:57.624Z,9.07
2018-12-13T18:36:01.091Z,9.73
2018-12-13T18:41:05.350Z,9.80
2018-12-13T18:46:08.925Z,10.00
2018-12-13T18:51:12.545Z,9.10
2018-12-13T18:56:16.333Z,9.70
2018-12-13T19:01:19.825Z,10.30
2018-12-13T19:06:23.301Z,10.60
2018-12-13T19:11:27.189Z,10.03
2018-12-13T19:16:30.971Z,9.50
2018-12-13T19:21:34.443Z,9.60
2018-12-13T19:26:39.067Z,9.33
2018-12-13T19:31:42.647Z,9.50
2018-12-13T19:36:47.324Z,8.63
2018-12-13T19:41:50.960Z,10.10
2018-12-13T19:46:54.461Z,10.40
2018-12-13T19:51:57.945Z,9.37
2018-12-13T19:57:01.427Z,9.07
2018-12-13T20:02:04.941Z,9.07
2018-12-13T20:07:08.491Z,9.40
2018-12-13T20:12:13.242Z,10.10
2018-12-13T20:17:18.606Z,8.90
2018-12-13T20:22:23.253Z,7.90
2018-12-13T20:27:28.010Z,7.80
2018-12-13T20:32:32.257Z,8.90
2018-12-13T20:37:36.478Z,8.50
2018-12-13T20:42:40.533Z,8.57
2018-12-13T20:47:45.243Z,8.00
2018-12-13T20:52:48.859Z,8.80
2018-12-13T20:57:52.853Z,7.83
2018-12-13T21:02:57.364Z,8.03
2018-12-13T21:08:07.313Z,8.10
2018-12-13T21:13:11.397Z,9.65
2018-12-13T21:18:16.342Z,8.40
2018-12-13T21:23:20.037Z,7.77
2018-12-13T21:28:23.483Z,7.20
2018-12-13T21:33:27.002Z,6.87
2018-12-13T21:38:30.413Z,6.60
2018-12-13T21:43:34.165Z,5.80
2018-12-13T21:48:37.703Z,6.33
2018-12-13T21:53:41.250Z,6.07
2018-12-13T21:58:44.716Z,6.70
2018-12-13T22:03:48.203Z,6.17
2018-12-13T22:08:51.751Z,5.73
2018-12-13T22:13:55.330Z,5.50
2018-12-13T22:18:58.903Z,5.87
2018-12-13T22:24:02.520Z,4.70
2018-12-13T22:29:05.920Z,5.00
2018-12-13T22:34:11.012Z,4.63
2018-12-13T22:39:14.650Z,4.43
2018-12-13T22:44:18.310Z,4.33
2018-12-13T22:49:21.901Z,4.77
2018-12-13T22:54:25.319Z,4.47
2018-12-13T22:59:28.868Z,5.33
2018-12-13T23:04:32.328Z,5.23
2018-12-13T23:09:35.706Z,4.40
2018-12-13T23:14:39.157Z,3.97
2018-12-13T23:19:42.572Z,4.10
2018-12-13T23:24:45.993Z,4.10
2018-12-13T23:29:49.639Z,4.30
2018-12-13T23:34:53.175Z,5.43
2018-12-13T23:39:56.671Z,5.20
2018-12-13T23:45:00.176Z,5.80
2018-12-13T23:50:04.262Z,4.87
2018-12-13T23:55:07.931Z,5.73
